Flugplatz Unterschüpf

Für EDGU sind keine METAR/TAF Berichte vorhanden.
Es werden die Flugwettermeldungen vom Flugplatz Niederstetten Airport in 25 km Entfernung angezeigt.

Bericht für ETHN

vom 25.09. um 18:20 UTC

Wind 8 kt aus 230°

Sichtweite 10 km oder mehr

gering bewölkt in 1200 ft

aufgelockert bewölkt in 3000 ft

aufgebrochene Bewölkung in 10000 ft

Temperatur 9.0°C

Taupunkt 6.0°C

Luftfeuchtigkeit 81%

Luftdruck 1000 hPa

ETHN 251820Z 23008KT 9999 FEW012 SCT030 BKN100 09/06 Q1000 BLU
Keine Prognose (TAF) verfügbar.
Impressum